Time;durP1;ratioP1;P1;durP2;ratioP2;P2;SDS_P1;SDS_P2;PMS_P1;PMS_P2;Temp;Humidity;BMP_temperature;BMP_pressure;BME280_temperature;BME280_humidity;BME280_pressure;Samples;Min_cycle;Max_cycle;Signal;HPM_P1;HPM_P2
2022/09/05 00:02:42;;;;;;;17.20;7.90;;;;;;;30.66;71.02;97747.81;4854201;29;20057;-72
2022/09/05 00:05:45;;;;;;;19.90;9.20;;;;;;;30.59;70.88;97767.91;4875171;29;20067;-72
2022/09/05 00:08:52;;;;;;;17.27;8.63;;;;;;;30.84;70.48;97767.50;4874374;29;20097;-72
2022/09/05 00:11:55;;;;;;;17.73;9.45;;;;;;;30.72;71.04;97771.25;4888221;29;20052;-72
2022/09/05 00:15:04;;;;;;;19.10;8.80;;;;;;;30.55;70.57;97780.84;4867915;29;20071;-72
2022/09/05 00:18:33;;;;;;;22.40;8.60;;;;;;;30.80;70.62;97788.78;4853531;29;20136;-72
2022/09/05 00:21:49;;;;;;;21.38;8.18;;;;;;;30.87;69.59;97794.44;4853273;29;20045;-72
2022/09/05 00:25:04;;;;;;;15.45;7.78;;;;;;;30.81;70.69;97795.94;4854628;29;20207;-72
2022/09/05 00:28:25;;;;;;;20.05;9.73;;;;;;;30.84;70.03;97803.53;4872627;29;20096;-71
2022/09/05 00:31:20;;;;;;;26.90;9.10;;;;;;;30.52;70.74;97806.53;4856275;29;20713;-72
2022/09/05 00:34:38;;;;;;;24.58;8.65;;;;;;;30.63;71.55;97812.28;4837323;29;20053;-72
2022/09/05 00:37:46;;;;;;;15.85;8.00;;;;;;;30.69;70.51;97819.09;4853699;29;20781;-72
2022/09/05 00:40:27;;;;;;;19.25;8.70;;;;;;;30.63;71.02;97823.34;4852773;29;20112;-72
2022/09/05 00:43:27;;;;;;;17.17;8.68;;;;;;;30.63;70.26;97828.88;4869221;29;20057;-72
2022/09/05 00:46:14;;;;;;;23.05;8.85;;;;;;;30.58;70.82;97835.50;4871925;29;20055;-72
2022/09/05 00:49:32;;;;;;;13.13;9.38;;;;;;;30.62;70.33;97849.44;4872376;29;20052;-72
2022/09/05 00:52:27;;;;;;;26.73;8.98;;;;;;;30.66;70.55;97855.03;4853017;29;20436;-72
2022/09/05 00:55:37;;;;;;;22.67;9.57;;;;;;;30.56;70.47;97856.44;4853658;29;20497;-71
2022/09/05 00:58:45;;;;;;;18.27;9.23;;;;;;;30.68;70.73;97863.78;4852976;29;20061;-72
2022/09/05 01:02:17;;;;;;;23.70;9.73;;;;;;;30.62;70.56;97866.84;4853209;29;20787;-72
2022/09/05 01:05:44;;;;;;;22.77;9.20;;;;;;;30.34;71.18;97877.38;4867688;29;20066;-72
2022/09/05 01:08:48;;;;;;;21.30;8.63;;;;;;;30.62;70.49;97872.38;4852633;29;20054;-71
2022/09/05 01:11:36;;;;;;;18.88;9.57;;;;;;;30.71;70.89;97883.22;4853608;29;20045;-71
2022/09/05 01:14:25;;;;;;;18.60;9.32;;;;;;;30.76;70.62;97885.66;4871140;29;20549;-71
2022/09/05 01:17:37;;;;;;;16.88;9.00;;;;;;;30.77;70.53;97892.03;4871545;29;20056;-70
2022/09/05 01:20:45;;;;;;;21.67;9.15;;;;;;;30.86;71.17;97895.38;4871531;29;20057;-71
2022/09/05 01:24:21;;;;;;;19.35;8.85;;;;;;;30.83;71.63;97902.44;4871004;29;20102;-72
2022/09/05 01:27:37;;;;;;;29.85;10.32;;;;;;;30.73;70.85;97905.03;4871280;29;20053;-71
2022/09/05 01:30:46;;;;;;;28.42;10.48;;;;;;;30.87;70.63;97915.56;4871107;29;20065;-72
2022/09/05 01:33:47;;;;;;;21.73;9.35;;;;;;;30.77;70.65;97916.97;4870886;29;20482;-72
2022/09/05 01:36:36;;;;;;;19.52;10.02;;;;;;;30.92;70.57;97916.09;4856088;29;20137;-71
2022/09/05 01:39:27;;;;;;;28.10;11.48;;;;;;;30.74;70.49;97912.94;4860830;29;20053;-72
2022/09/05 01:42:40;;;;;;;23.25;9.38;;;;;;;30.85;70.23;97921.44;4875138;29;20406;-72
2022/09/05 01:45:40;;;;;;;27.55;9.88;;;;;;;30.80;70.44;97924.53;4874910;29;20048;-71
2022/09/05 01:48:31;;;;;;;19.92;9.63;;;;;;;30.92;69.67;97924.38;4874800;29;20052;-71
2022/09/05 01:51:25;;;;;;;24.88;10.05;;;;;;;30.78;70.58;97927.69;4876997;29;20113;-72
2022/09/05 01:54:48;;;;;;;23.27;10.60;;;;;;;31.00;69.35;97926.09;4897574;29;20076;-71
2022/09/05 01:57:54;;;;;;;21.17;9.52;;;;;;;30.76;69.44;97921.69;4903064;29;20055;-71
2022/09/05 02:00:59;;;;;;;23.90;10.45;;;;;;;31.09;69.05;97934.19;4879774;29;20051;-72
2022/09/05 02:04:26;;;;;;;26.70;9.98;;;;;;;31.02;69.78;97923.78;4894243;29;20053;-71
2022/09/05 02:07:24;;;;;;;19.50;9.18;;;;;;;30.90;70.03;97931.44;4892438;29;20124;-72
2022/09/05 02:10:18;;;;;;;19.13;9.73;;;;;;;31.23;69.48;97939.16;4862797;29;20088;-71
2022/09/05 02:14:04;;;;;;;21.10;9.57;;;;;;;31.71;67.41;97941.53;4855891;29;20109;-72
2022/09/05 02:17:37;;;;;;;20.73;9.23;;;;;;;31.60;67.55;97946.91;4805212;29;20066;-74
2022/09/05 02:20:42;;;;;;;32.42;10.57;;;;;;;30.70;68.30;97953.63;4872316;29;20049;-72
2022/09/05 02:23:43;;;;;;;19.65;9.30;;;;;;;31.52;67.40;97961.84;4873783;29;20045;-73
2022/09/05 02:26:33;;;;;;;25.88;11.63;;;;;;;31.62;66.20;97966.75;4873828;29;20059;-73
2022/09/05 02:29:34;;;;;;;23.35;10.52;;;;;;;31.34;67.42;97973.41;4884620;29;20068;-73
2022/09/05 02:32:51;;;;;;;24.02;10.60;;;;;;;31.61;66.78;97981.81;4878038;29;20056;-72
2022/09/05 02:36:09;;;;;;;25.00;9.93;;;;;;;31.78;66.93;97981.28;4869725;29;20057;-72
2022/09/05 02:39:24;;;;;;;21.88;9.77;;;;;;;32.15;66.64;97991.75;4854863;29;20470;-72
2022/09/05 02:42:51;;;;;;;27.23;10.07;;;;;;;32.08;66.42;97988.06;4855234;29;20137;-72
2022/09/05 02:46:25;;;;;;;19.58;9.88;;;;;;;32.04;65.27;97988.00;4854945;29;20061;-72
2022/09/05 02:49:47;;;;;;;18.75;9.52;;;;;;;32.12;64.78;97986.13;4854573;29;20076;-72
2022/09/05 02:52:56;;;;;;;23.50;9.70;;;;;;;32.29;64.63;97993.13;4873368;29;20045;-72
2022/09/05 02:56:33;;;;;;;26.65;10.20;;;;;;;32.36;64.39;97996.78;4873567;29;20625;-72
2022/09/05 03:00:11;;;;;;;19.88;9.82;;;;;;;31.85;65.43;98004.75;4872951;29;20052;-72
2022/09/05 03:03:11;;;;;;;23.08;9.85;;;;;;;32.28;64.05;98008.19;4873193;29;20136;-72
2022/09/05 03:06:38;;;;;;;21.58;10.38;;;;;;;32.60;63.57;98016.97;4862106;29;20041;-72
2022/09/05 03:09:54;;;;;;;20.45;9.82;;;;;;;32.87;63.04;98022.44;4854120;29;20092;-72
2022/09/05 03:13:06;;;;;;;21.33;8.95;;;;;;;32.77;62.70;98024.72;4854755;29;20130;-72
2022/09/05 03:16:34;;;;;;;23.80;10.82;;;;;;;31.91;63.14;98033.78;4848246;29;20665;-72
2022/09/05 03:19:47;;;;;;;21.65;10.00;;;;;;;32.66;62.98;98040.47;4853180;29;20069;-71
2022/09/05 03:22:59;;;;;;;26.90;9.82;;;;;;;32.74;60.31;98047.69;4839131;29;20069;-74
2022/09/05 03:26:15;;;;;;;24.40;9.40;;;;;;;32.48;62.46;98059.63;4844879;29;20049;-72
2022/09/05 03:29:22;;;;;;;15.90;9.18;;;;;;;32.16;63.52;98064.75;4873226;29;20474;-72
2022/09/05 03:32:44;;;;;;;32.40;10.27;;;;;;;31.66;66.09;98084.09;4872915;29;20553;-72
2022/09/05 03:36:10;;;;;;;23.25;9.48;;;;;;;31.75;66.57;98081.88;4867637;29;20049;-72
2022/09/05 03:39:11;;;;;;;22.17;10.18;;;;;;;32.16;65.41;98082.19;4872926;29;20053;-70
2022/09/05 03:42:34;;;;;;;21.20;9.88;;;;;;;32.42;65.27;98100.00;4860096;29;20052;-72
2022/09/05 03:46:07;;;;;;;19.77;10.00;;;;;;;31.96;65.20;98097.31;4849943;29;20598;-71
2022/09/05 03:49:05;;;;;;;17.80;8.65;;;;;;;32.08;65.43;98116.56;4879076;29;20064;-72
2022/09/05 03:52:50;;;;;;;18.50;9.20;;;;;;;32.06;65.25;98116.13;4852543;29;20037;-69
2022/09/05 03:56:36;;;;;;;21.90;9.20;;;;;;;31.60;65.30;98118.88;4852265;29;20144;-71
2022/09/05 03:59:50;;;;;;;15.05;9.00;;;;;;;31.65;64.90;98124.13;4853387;29;21053;-70
2022/09/05 04:03:03;;;;;;;19.10;9.23;;;;;;;31.67;65.09;98127.34;4856235;29;20053;-69
2022/09/05 04:06:07;;;;;;;20.38;8.75;;;;;;;32.07;63.38;98120.50;4857592;29;20061;-71
2022/09/05 04:09:26;;;;;;;16.55;7.95;;;;;;;31.94;63.26;98127.41;4871138;29;20056;-70
2022/09/05 04:12:33;;;;;;;;;;;;;;;32.39;62.77;98129.34;4885337;29;20072;-71
2022/09/05 04:15:32;;;;;;;14.45;8.02;;;;;;;31.97;63.31;98133.00;4890402;29;19951;-71
2022/09/05 04:18:17;;;;;;;13.55;7.72;;;;;;;31.99;62.60;98133.44;4890446;29;20175;-71
2022/09/05 04:21:43;;;;;;;15.18;8.75;;;;;;;31.65;63.77;98138.00;4890351;29;20051;-70
2022/09/05 04:24:44;;;;;;;12.65;7.72;;;;;;;32.08;63.19;98143.50;4890071;29;20117;-71
2022/09/05 04:27:45;;;;;;;23.48;8.35;;;;;;;32.35;61.35;98147.09;4852156;29;20061;-70
2022/09/05 04:30:43;;;;;;;15.65;8.07;;;;;;;32.07;62.26;98153.81;4859827;29;20148;-71
2022/09/05 04:33:44;;;;;;;15.98;8.68;;;;;;;32.54;60.92;98163.69;4861408;29;20711;-72
2022/09/05 04:36:37;;;;;;;19.00;8.85;;;;;;;32.84;59.59;98179.63;4884718;29;20056;-71
2022/09/05 04:39:26;;;;;;;18.38;9.73;;;;;;;33.63;58.62;98180.66;4881507;29;20060;-71
2022/09/05 04:42:20;;;;;;;17.67;8.18;;;;;;;32.95;58.75;98194.47;4876000;29;20456;-70
2022/09/05 04:45:17;;;;;;;12.35;8.60;;;;;;;33.88;57.31;98185.66;4871470;29;20053;-70
2022/09/05 04:48:08;;;;;;;12.02;8.13;;;;;;;33.64;57.07;98200.94;4876134;29;20045;-72
2022/09/05 04:51:11;;;;;;;18.35;9.50;;;;;;;33.84;56.18;98201.53;4874394;29;20481;-71
2022/09/05 04:54:07;;;;;;;15.13;8.93;;;;;;;33.73;56.63;98202.22;4857003;29;20154;-72
2022/09/05 04:56:59;;;;;;;;;;;;;;;34.26;55.98;98205.94;4872048;29;20049;-71
2022/09/05 04:59:57;;;;;;;18.60;9.80;;;;;;;33.57;56.66;98214.72;4871682;29;19931;-71
2022/09/05 05:03:17;;;;;;;18.10;10.10;;;;;;;34.12;55.63;98210.16;4874543;29;20112;-71
2022/09/05 05:06:37;;;;;;;15.27;9.25;;;;;;;34.00;54.88;98218.00;4892438;29;20049;-71
2022/09/05 05:09:45;;;;;;;30.17;9.00;;;;;;;33.34;56.11;98224.81;4892674;29;20052;-69
2022/09/05 05:13:17;;;;;;;18.40;9.43;;;;;;;33.73;54.94;98227.28;4893686;29;20432;-70
2022/09/05 05:16:29;;;;;;;18.85;9.25;;;;;;;33.19;55.79;98228.59;4881429;29;20422;-68
2022/09/05 05:19:44;;;;;;;24.90;7.30;;;;;;;33.71;54.67;98226.84;4874647;29;20045;-69
2022/09/05 05:23:13;;;;;;;16.20;6.07;;;;;;;33.70;52.27;98236.38;4873577;29;20513;-73
2022/09/05 05:26:06;;;;;;;28.00;7.78;;;;;;;32.97;55.21;98222.69;4874957;29;20105;-74
2022/09/05 05:29:22;;;;;;;16.58;8.50;;;;;;;33.08;54.69;98222.06;4874645;29;20550;-73
2022/09/05 05:32:40;;;;;;;18.33;7.32;;;;;;;32.24;55.42;98218.34;4862949;29;20041;-72
2022/09/05 05:35:37;;;;;;;23.30;7.63;;;;;;;32.19;57.28;98205.56;4861049;29;20061;-73
2022/09/05 05:38:34;;;;;;;14.27;7.78;;;;;;;32.17;56.78;98196.81;4874945;29;20053;-69
2022/09/05 05:41:39;;;;;;;12.52;6.20;;;;;;;32.64;54.36;98197.59;4875421;29;20068;-74
2022/09/05 05:44:36;;;;;;;13.20;5.75;;;;;;;33.18;54.68;98185.25;4872340;29;20049;-75
2022/09/05 05:47:32;;;;;;;12.80;5.63;;;;;;;31.93;55.15;98184.06;4892653;29;20052;-72
2022/09/05 05:50:20;;;;;;;13.05;5.30;;;;;;;32.44;55.80;98169.06;4886376;29;20056;-74
2022/09/05 05:53:33;;;;;;;13.77;6.07;;;;;;;32.22;54.49;98154.88;4874631;29;20069;-74
2022/09/05 05:56:26;;;;;;;8.85;4.50;;;;;;;31.58;56.17;98158.06;4874047;29;20064;-74
2022/09/05 05:59:18;;;;;;;8.32;4.40;;;;;;;32.08;56.35;98149.06;4874549;29;20049;-73
2022/09/05 06:02:37;;;;;;;17.60;4.55;;;;;;;32.05;55.85;98156.16;4874266;29;20128;-73
2022/09/05 06:06:33;;;;;;;17.33;4.35;;;;;;;31.50;57.45;98159.13;4875174;29;20751;-74
2022/09/05 06:09:57;;;;;;;5.75;3.67;;;;;;;31.77;56.19;98154.44;4822276;29;20046;-73
2022/09/05 06:13:38;;;;;;;12.27;4.40;;;;;;;33.31;53.71;98147.69;4873264;29;20048;-74
2022/09/05 06:17:00;;;;;;;8.77;3.97;;;;;;;33.40;53.02;98166.88;4872918;29;20112;-73
2022/09/05 06:20:19;;;;;;;9.82;3.83;;;;;;;32.06;55.38;98156.97;4874003;29;20085;-74
2022/09/05 06:23:35;;;;;;;10.25;3.70;;;;;;;32.33;55.48;98149.47;4873753;29;20056;-72
2022/09/05 06:26:34;;;;;;;14.53;4.23;;;;;;;32.52;55.84;98143.81;4858728;29;20425;-72
2022/09/05 06:29:34;;;;;;;12.32;4.00;;;;;;;32.65;54.76;98138.06;4872954;29;20313;-73
2022/09/05 06:32:37;;;;;;;4.90;3.50;;;;;;;33.31;54.09;98131.00;4873602;29;20575;-73
2022/09/05 06:35:28;;;;;;;14.27;4.00;;;;;;;33.54;53.30;98130.06;4875757;29;20069;-71
2022/09/05 06:38:22;;;;;;;11.50;3.72;;;;;;;32.95;52.87;98133.31;4892897;29;20419;-70
2022/09/05 06:41:15;;;;;;;12.82;3.45;;;;;;;32.95;52.89;98124.97;4886586;29;20116;-71
2022/09/05 06:44:36;;;;;;;9.32;3.60;;;;;;;33.24;52.43;98125.34;4882328;29;20048;-70
2022/09/05 06:47:18;;;;;;;10.32;3.42;;;;;;;32.07;56.15;98109.41;4863568;29;20059;-71
2022/09/05 06:50:33;;;;;;;6.13;3.50;;;;;;;32.41;54.37;98108.72;4867742;29;20516;-72
2022/09/05 06:53:43;;;;;;;5.57;3.20;;;;;;;32.50;54.57;98096.19;4859538;29;20064;-73
2022/09/05 06:56:53;;;;;;;4.95;3.25;;;;;;;31.91;56.25;98089.28;4892872;29;20057;-72
2022/09/05 07:00:00;;;;;;;4.30;3.10;;;;;;;32.25;55.11;98081.13;4892291;29;20059;-72
2022/09/05 07:03:34;;;;;;;6.38;3.30;;;;;;;32.73;55.02;98079.44;4891862;29;20366;-70
2022/09/05 07:06:21;;;;;;;7.90;3.42;;;;;;;33.11;52.92;98077.53;4885874;29;20053;-72
2022/09/05 07:09:52;;;;;;;6.20;3.22;;;;;;;33.39;52.40;98069.91;4872716;29;20757;-71
2022/09/05 07:12:42;;;;;;;6.95;3.80;;;;;;;33.70;51.38;98069.41;4873232;29;20199;-71
2022/09/05 07:15:42;;;;;;;6.57;3.20;;;;;;;32.87;52.65;98070.50;4873030;29;20045;-73
2022/09/05 07:18:50;;;;;;;8.80;3.33;;;;;;;33.16;53.24;98063.28;4868832;29;20049;-73
2022/09/05 07:22:13;;;;;;;5.32;2.90;;;;;;;33.71;52.02;98054.31;4869957;29;20041;-73
2022/09/05 07:25:21;;;;;;;6.15;3.35;;;;;;;33.98;52.17;98056.91;4870330;29;20137;-73
2022/09/05 07:28:19;;;;;;;4.10;3.30;;;;;;;33.42;52.86;98055.19;4853178;29;20165;-73
2022/09/05 07:31:22;;;;;;;4.55;3.30;;;;;;;33.12;53.32;98053.31;4851993;29;20056;-73
2022/09/05 07:34:24;;;;;;;5.10;3.67;;;;;;;32.85;54.10;98042.28;4852765;29;20057;-73
2022/09/05 07:37:21;;;;;;;8.23;4.15;;;;;;;33.74;52.86;98028.53;4868163;29;20078;-72
2022/09/05 07:40:08;;;;;;;7.20;3.83;;;;;;;32.93;53.69;98032.03;4874541;29;20096;-72
2022/09/05 07:43:09;;;;;;;;;;;;;;;34.08;51.84;98020.00;4889432;29;20527;-74
2022/09/05 07:46:22;;;;;;;9.25;4.53;;;;;;;34.18;52.94;98017.69;4889102;29;20026;-73
2022/09/05 07:49:15;;;;;;;7.53;3.92;;;;;;;33.61;51.59;98007.72;4885502;29;20059;-72
2022/09/05 07:52:00;;;;;;;6.50;4.35;;;;;;;34.03;52.20;98000.06;4853720;29;20045;-73
2022/09/05 07:55:26;;;;;;;6.28;4.38;;;;;;;33.55;53.07;97990.56;4851246;29;20065;-74
2022/09/05 07:58:50;;;;;;;10.40;4.35;;;;;;;33.97;52.49;97984.91;4851979;29;22455;-73
2022/09/05 08:01:39;;;;;;;7.47;4.00;;;;;;;33.39;53.47;97992.00;4852329;29;20065;-74
2022/09/05 08:04:32;;;;;;;9.32;4.10;;;;;;;33.79;53.11;97982.03;4853180;29;20060;-73
2022/09/05 08:07:27;;;;;;;7.43;4.32;;;;;;;33.93;53.75;97987.69;4853688;29;20049;-72
2022/09/05 08:10:37;;;;;;;8.43;4.28;;;;;;;34.12;52.36;97986.59;4854423;29;20135;-73
2022/09/05 08:13:46;;;;;;;8.35;4.72;;;;;;;34.26;51.74;97978.38;4870630;29;20045;-74
2022/09/05 08:16:28;;;;;;;15.32;5.75;;;;;;;33.78;53.60;97963.72;4871947;29;20064;-73
2022/09/05 08:19:38;;;;;;;9.32;5.30;;;;;;;33.61;53.65;97960.41;4856083;29;20126;-73
2022/09/05 08:22:22;;;;;;;14.95;6.60;;;;;;;33.49;54.64;97955.94;4854219;29;20057;-73
2022/09/05 08:25:27;;;;;;;18.50;7.68;;;;;;;33.86;53.24;97957.00;4863717;29;20073;-72
2022/09/05 08:28:50;;;;;;;9.15;7.25;;;;;;;34.52;54.15;97966.13;4868780;29;20045;-72
2022/09/05 08:31:55;;;;;;;8.63;6.45;;;;;;;34.09;54.18;97974.25;4862800;29;20076;-73
2022/09/05 08:35:05;;;;;;;11.27;6.10;;;;;;;34.14;53.96;97987.78;4871996;29;20775;-73
2022/09/05 08:37:57;;;;;;;10.07;6.97;;;;;;;33.80;54.08;97984.41;4873321;29;20053;-72
2022/09/05 08:41:16;;;;;;;12.82;5.97;;;;;;;33.56;55.43;97985.81;4858169;29;20045;-73
2022/09/05 08:44:47;;;;;;;10.18;6.00;;;;;;;33.86;54.45;97979.28;4876085;29;20045;-72
2022/09/05 08:48:06;;;;;;;10.52;5.80;;;;;;;33.99;55.16;97985.31;4878998;29;20476;-71
2022/09/05 08:51:10;;;;;;;11.25;5.75;;;;;;;33.62;56.00;97983.47;4885388;29;20080;-74
2022/09/05 08:54:25;;;;;;;8.73;5.28;;;;;;;33.85;55.54;97967.34;4876475;29;20044;-72
2022/09/05 08:57:51;;;;;;;8.90;5.47;;;;;;;33.95;55.55;97960.25;4893144;29;20120;-71
2022/09/05 09:00:54;;;;;;;9.57;5.40;;;;;;;34.05;55.53;97958.72;4893702;29;20112;-72
2022/09/05 09:04:02;;;;;;;8.13;5.90;;;;;;;34.07;55.16;97951.59;4892661;29;20390;-74
2022/09/05 09:07:05;;;;;;;11.10;6.25;;;;;;;33.48;56.35;97936.88;4891504;29;20045;-72
2022/09/05 09:10:41;;;;;;;9.07;5.90;;;;;;;34.20;55.88;97923.41;4855038;29;20057;-71
2022/09/05 09:13:43;;;;;;;11.88;5.63;;;;;;;33.98;56.87;97917.72;4855686;29;20549;-71
2022/09/05 09:16:37;;;;;;;11.98;5.40;;;;;;;34.12;56.76;97917.00;4856082;29;20762;-71
2022/09/05 09:19:51;;;;;;;8.38;5.70;;;;;;;34.27;55.64;97912.31;4872611;29;20053;-71
2022/09/05 09:22:54;;;;;;;7.85;5.63;;;;;;;33.92;57.51;97922.06;4874087;29;20056;-73
2022/09/05 09:25:44;;;;;;;10.57;5.80;;;;;;;34.37;55.86;97927.47;4879732;29;20056;-72
2022/09/05 09:28:39;;;;;;;9.00;5.68;;;;;;;34.48;55.33;97926.31;4893119;29;21052;-73
2022/09/05 09:31:56;;;;;;;9.60;6.05;;;;;;;34.43;57.52;97935.06;4874588;29;20049;-73
2022/09/05 09:34:52;;;;;;;17.10;6.10;;;;;;;34.44;56.27;97938.63;4874155;29;20064;-71
2022/09/05 09:37:51;;;;;;;14.50;6.57;;;;;;;34.43;55.63;97937.03;4874223;29;20633;-72
2022/09/05 09:41:40;;;;;;;7.80;5.43;;;;;;;34.36;57.34;97940.59;4855843;29;20153;-72
2022/09/05 09:44:51;;;;;;;12.65;5.78;;;;;;;34.02;56.11;97934.44;4891523;29;20063;-72
2022/09/05 09:48:05;;;;;;;9.35;5.95;;;;;;;34.13;57.73;97935.31;4884782;29;20470;-72
2022/09/05 09:51:21;;;;;;;9.65;5.25;;;;;;;34.37;57.72;97939.41;4884504;29;20124;-71
2022/09/05 09:54:33;;;;;;;8.32;5.53;;;;;;;34.23;57.54;97931.00;4891356;29;20041;-70
2022/09/05 09:57:47;;;;;;;9.88;5.82;;;;;;;34.18;56.32;97925.78;4891599;29;20512;-73
2022/09/05 10:01:07;;;;;;;10.00;5.68;;;;;;;33.74;58.13;97921.94;4892876;29;20057;-73
2022/09/05 10:04:54;;;;;;;8.27;6.13;;;;;;;33.82;57.74;97925.56;4890796;29;20052;-73
2022/09/05 10:08:28;;;;;;;20.48;5.75;;;;;;;32.88;55.25;97947.00;4837145;29;20194;-71
2022/09/05 10:11:39;;;;;;;29.23;5.80;;;;;;;32.37;55.21;97953.19;4844928;29;20072;-72
2022/09/05 10:14:51;;;;;;;22.48;5.82;;;;;;;31.67;55.51;97958.13;4855269;29;20410;-73
2022/09/05 10:17:37;;;;;;;21.23;5.13;;;;;;;31.25;55.54;97964.53;4854841;29;20061;-71
2022/09/05 10:20:38;;;;;;;24.67;5.68;;;;;;;30.84;55.57;97978.03;4854622;29;20470;-72
2022/09/05 10:23:58;;;;;;;30.33;6.32;;;;;;;31.18;55.86;97975.50;4855121;29;20049;-69
2022/09/05 10:27:04;;;;;;;23.98;5.60;;;;;;;30.60;57.06;97976.38;4854265;29;20125;-68
2022/09/05 10:30:18;;;;;;;17.08;4.32;;;;;;;30.26;58.77;97982.38;4849115;29;20069;-70
2022/09/05 10:33:41;;;;;;;18.88;4.72;;;;;;;30.04;59.04;97985.84;4846715;29;20045;-70
2022/09/05 10:37:04;;;;;;;18.08;5.18;;;;;;;29.88;61.09;97996.16;4849670;29;20522;-71
2022/09/05 10:40:04;;;;;;;22.60;6.60;;;;;;;29.70;61.26;97993.75;4862732;29;20048;-70
2022/09/05 10:43:23;;;;;;;12.23;4.07;;;;;;;29.64;60.92;98000.72;4863357;29;20052;-71
2022/09/05 10:46:26;;;;;;;12.38;4.22;;;;;;;30.12;60.07;98009.75;4872934;29;20448;-73
2022/09/05 10:49:37;;;;;;;12.82;4.03;;;;;;;30.00;60.12;98002.38;4836444;29;20131;-70
2022/09/05 10:53:07;;;;;;;6.85;3.55;;;;;;;30.37;58.42;98009.53;4836466;29;20064;-71
2022/09/05 10:56:10;;;;;;;11.70;4.63;;;;;;;30.44;58.79;98006.91;4834616;29;20132;-71
2022/09/05 10:59:02;;;;;;;14.77;3.58;;;;;;;30.53;58.22;98006.69;4834987;29;20110;-70
2022/09/05 11:02:22;;;;;;;11.85;3.42;;;;;;;30.50;58.05;98013.75;4836060;29;20141;-72
2022/09/05 11:05:33;;;;;;;6.55;3.78;;;;;;;30.94;55.79;98018.22;4836367;29;20145;-70
2022/09/05 11:08:52;;;;;;;9.52;4.35;;;;;;;30.97;54.92;98000.84;4836055;29;20061;-70
2022/09/05 11:11:52;;;;;;;9.52;3.90;;;;;;;30.89;55.26;97986.03;4840346;29;20493;-71
2022/09/05 11:14:50;;;;;;;10.10;4.03;;;;;;;30.59;55.25;98003.28;4854969;29;20106;-71
2022/09/05 11:18:02;;;;;;;7.50;3.00;;;;;;;30.63;54.96;98004.16;4838851;29;20106;-72
2022/09/05 11:20:54;;;;;;;8.70;3.38;;;;;;;30.72;54.38;97986.50;4855222;29;20053;-71
2022/09/05 11:23:46;;;;;;;4.13;2.88;;;;;;;30.56;54.61;98001.22;4854424;29;20113;-69
2022/09/05 11:26:41;;;;;;;7.70;3.42;;;;;;;30.73;54.87;97994.44;4867615;29;20131;-70
2022/09/05 11:30:06;;;;;;;5.10;3.22;;;;;;;30.84;53.14;97989.13;4892271;29;20096;-71
2022/09/05 11:33:06;;;;;;;5.60;2.63;;;;;;;30.32;54.94;97987.66;4890923;29;20055;-71
2022/09/05 11:36:21;;;;;;;9.02;3.03;;;;;;;30.43;54.92;97977.63;4891378;29;20053;-71
2022/09/05 11:39:38;;;;;;;6.75;2.72;;;;;;;30.68;55.01;97974.56;4888144;29;20067;-71
2022/09/05 11:43:11;;;;;;;6.20;3.20;;;;;;;30.86;55.59;97959.09;4891144;29;20044;-71
2022/09/05 11:46:14;;;;;;;17.08;3.80;;;;;;;30.50;56.11;97952.84;4890622;29;20036;-71
2022/09/05 11:49:12;;;;;;;15.70;3.78;;;;;;;30.69;56.84;97959.53;4868364;29;20334;-70
2022/09/05 11:52:15;;;;;;;14.45;3.78;;;;;;;30.48;58.03;97965.44;4871202;29;20053;-73
2022/09/05 11:55:41;;;;;;;10.57;3.92;;;;;;;30.39;58.23;97949.84;4879336;29;20160;-71
2022/09/05 11:58:47;;;;;;;14.95;4.35;;;;;;;30.00;60.36;97973.88;4881446;29;20053;-70
2022/09/05 12:01:40;;;;;;;8.95;4.03;;;;;;;29.92;60.59;97969.38;4871530;29;20121;-72
2022/09/05 12:05:07;;;;;;;9.13;3.22;;;;;;;29.93;60.69;97980.06;4871402;29;20059;-73
2022/09/05 12:08:20;;;;;;;13.85;3.60;;;;;;;30.34;59.94;97985.34;4816576;29;20756;-70
2022/09/05 12:11:34;;;;;;;10.60;4.13;;;;;;;30.16;60.96;97993.22;4859732;29;20133;-71
2022/09/05 12:14:36;;;;;;;9.18;4.07;;;;;;;30.24;61.10;97990.25;4853539;29;20132;-71
2022/09/05 12:17:37;;;;;;;14.77;3.35;;;;;;;29.80;60.85;97993.22;4853185;29;20521;-69
2022/09/05 12:20:44;;;;;;;10.68;3.83;;;;;;;30.05;60.69;97988.25;4853326;29;20046;-70
2022/09/05 12:23:25;;;;;;;9.50;3.70;;;;;;;29.84;60.00;97991.31;4863253;29;20056;-71
2022/09/05 12:27:07;;;;;;;9.85;4.00;;;;;;;29.66;60.72;97985.34;4891033;29;20131;-69
2022/09/05 12:30:20;;;;;;;13.63;3.75;;;;;;;29.94;60.48;97980.88;4890527;29;20044;-72
2022/09/05 12:33:30;;;;;;;8.43;3.85;;;;;;;30.09;59.48;97979.22;4890806;29;20052;-71
2022/09/05 12:36:49;;;;;;;12.93;4.17;;;;;;;30.25;59.38;97969.72;4890813;29;20059;-72
2022/09/05 12:40:25;;;;;;;7.90;3.50;;;;;;;30.27;59.49;97958.28;4890942;29;20044;-70
2022/09/05 12:43:36;;;;;;;12.85;3.28;;;;;;;30.14;58.35;97960.38;4854939;29;20395;-70
2022/09/05 12:47:07;;;;;;;5.10;4.03;;;;;;;30.32;57.91;97943.38;4853909;29;20052;-71
2022/09/05 12:50:06;;;;;;;14.43;3.70;;;;;;;30.17;57.96;97940.28;4874935;29;20503;-71
2022/09/05 12:53:07;;;;;;;9.20;3.55;;;;;;;30.23;57.04;97936.06;4873865;29;20083;-71
2022/09/05 12:56:00;;;;;;;10.35;3.20;;;;;;;30.15;57.52;97928.78;4879524;29;20141;-70
2022/09/05 12:58:58;;;;;;;8.40;3.15;;;;;;;30.33;57.75;97934.72;4871241;29;20492;-70
2022/09/05 13:02:14;;;;;;;9.52;4.07;;;;;;;30.11;57.54;97927.88;4871368;29;20099;-71
2022/09/05 13:05:22;;;;;;;9.25;3.88;;;;;;;30.18;57.08;97911.44;4871528;29;20044;-71
2022/09/05 13:08:19;;;;;;;9.80;3.60;;;;;;;30.35;57.81;97907.47;4870738;29;20148;-71
2022/09/05 13:11:12;;;;;;;15.57;3.83;;;;;;;30.19;57.49;97907.53;4870761;29;20121;-71
2022/09/05 13:14:32;;;;;;;9.77;3.28;;;;;;;30.36;56.77;97911.84;4871902;29;20045;-71
2022/09/05 13:17:44;;;;;;;10.32;3.85;;;;;;;30.35;57.19;97924.06;4868603;29;20049;-71
2022/09/05 13:20:38;;;;;;;14.45;4.10;;;;;;;30.29;57.96;97921.94;4869258;29;20049;-71
2022/09/05 13:23:32;;;;;;;11.82;4.28;;;;;;;30.23;58.89;97915.91;4870393;29;20073;-72
2022/09/05 13:26:22;;;;;;;8.07;3.35;;;;;;;29.97;58.25;97922.06;4870810;29;20144;-71
2022/09/05 13:29:28;;;;;;;12.80;3.50;;;;;;;30.21;57.00;97913.50;4873793;29;20053;-72
2022/09/05 13:32:48;;;;;;;14.90;4.57;;;;;;;30.28;56.71;97912.03;4857331;29;20049;-74
2022/09/05 13:36:04;;;;;;;12.38;5.03;;;;;;;30.14;55.52;97918.88;4857764;29;20057;-72
2022/09/05 13:39:11;;;;;;;13.60;4.05;;;;;;;30.03;57.64;97901.25;4856052;29;20046;-71
2022/09/05 13:42:09;;;;;;;9.68;4.75;;;;;;;29.98;58.32;97905.09;4854989;29;20049;-73
2022/09/05 13:44:55;;;;;;;9.10;4.60;;;;;;;30.01;57.76;97903.56;4855457;29;20153;-73
2022/09/05 13:47:56;;;;;;;11.57;4.78;;;;;;;29.88;58.22;97915.94;4866854;29;20065;-73
2022/09/05 13:50:46;;;;;;;13.30;4.95;;;;;;;29.93;58.03;97910.13;4634338;29;10000437;-73
2022/09/05 13:53:36;;;;;;;8.15;4.40;;;;;;;30.01;57.41;97914.63;4852840;29;20246;-72
2022/09/05 13:56:38;;;;;;;10.70;5.13;;;;;;;30.12;57.87;97915.66;4862744;29;20060;-72
2022/09/05 13:59:14;;;;;;;11.05;4.97;;;;;;;30.21;57.25;97915.44;4887658;29;20068;-72
2022/09/05 14:02:26;;;;;;;15.73;5.03;;;;;;;30.10;57.03;97918.00;4876546;29;20413;-71
2022/09/05 14:05:35;;;;;;;10.82;5.25;;;;;;;30.10;56.73;97917.22;4873492;29;20048;-71
2022/09/05 14:08:49;;;;;;;19.58;5.55;;;;;;;30.07;57.71;97910.41;4867960;29;20109;-72
2022/09/05 14:12:15;;;;;;;11.77;5.90;;;;;;;29.97;57.32;97922.06;4870770;29;20056;-71
2022/09/05 14:15:34;;;;;;;17.65;6.78;;;;;;;30.09;57.44;97921.13;4871364;29;20197;-70
2022/09/05 14:21:14;;;;;;;15.75;7.57;;;;;;;30.10;58.07;97922.75;4869784;29;20485;-71
2022/09/05 14:21:44;;;;;;;19.83;7.85;;;;;;;30.01;58.02;97926.50;4868719;29;20363;-71
2022/09/05 14:24:31;;;;;;;17.38;7.00;;;;;;;29.96;57.98;97925.97;4853431;29;20126;-69
2022/09/05 14:27:20;;;;;;;17.80;6.03;;;;;;;29.82;57.12;97930.03;4863924;29;20049;-71
2022/09/05 14:30:13;;;;;;;16.48;5.90;;;;;;;30.06;56.79;97922.66;4873622;29;20069;-71
2022/09/05 14:33:29;;;;;;;19.85;5.93;;;;;;;30.11;56.13;97927.09;4845513;29;20502;-70
2022/09/05 14:36:45;;;;;;;18.90;6.30;;;;;;;29.80;57.04;97937.88;4874210;29;20053;-72
2022/09/05 14:40:12;;;;;;;15.82;7.15;;;;;;;29.89;56.98;97943.22;4881493;29;20690;-71